Time;durP1;ratioP1;P1;durP2;ratioP2;P2;SDS_P1;SDS_P2;PMS_P1;PMS_P2;Temp;Humidity;BMP_temperature;BMP_pressure;BME280_temperature;BME280_humidity;BME280_pressure;Samples;Min_cycle;Max_cycle;Signal;HPM_P1;HPM_P2
2023/12/23 00:02:16;;;;;;;4.85;0.85;;;10.10;88.60;;;;;;5041310;28;20049;-53
2023/12/23 00:04:47;;;;;;;3.28;0.88;;;10.10;88.70;;;;;;5044731;28;20048;-56
2023/12/23 00:07:14;;;;;;;2.85;1.63;;;10.10;88.70;;;;;;5046465;28;20037;-53
2023/12/23 00:09:42;;;;;;;5.13;0.82;;;10.10;88.80;;;;;;5051170;28;20049;-52
2023/12/23 00:12:09;;;;;;;4.43;0.85;;;10.10;88.80;;;;;;5051003;28;20524;-57
2023/12/23 00:14:36;;;;;;;3.50;0.70;;;10.10;88.90;;;;;;5051467;28;20112;-54
2023/12/23 00:17:07;;;;;;;4.32;1.10;;;10.10;89.00;;;;;;5049305;28;20687;-57
2023/12/23 00:19:36;;;;;;;7.80;1.20;;;10.10;88.90;;;;;;5050939;28;20052;-56
2023/12/23 00:22:05;;;;;;;2.08;0.55;;;10.10;88.90;;;;;;5049793;28;20140;-57
2023/12/23 00:24:35;;;;;;;2.35;0.80;;;10.10;89.00;;;;;;5047065;28;20504;-55
2023/12/23 00:27:04;;;;;;;5.50;0.98;;;10.10;89.10;;;;;;5050923;28;20115;-53
2023/12/23 00:29:37;;;;;;;2.80;0.93;;;10.10;89.00;;;;;;5050241;28;20041;-55
2023/12/23 00:32:08;;;;;;;2.78;1.10;;;10.10;89.00;;;;;;5044741;28;20068;-57
2023/12/23 00:34:37;;;;;;;3.25;0.93;;;10.10;89.00;;;;;;5050985;28;20045;-57
2023/12/23 00:37:06;;;;;;;4.32;1.08;;;10.10;89.00;;;;;;5049154;28;20041;-54
2023/12/23 00:39:35;;;;;;;2.88;1.15;;;10.10;89.00;;;;;;5049169;28;20049;-52
2023/12/23 00:42:10;;;;;;;4.05;0.75;;;10.10;89.10;;;;;;5045409;28;20044;-55
2023/12/23 00:44:44;;;;;;;3.08;0.70;;;10.10;89.10;;;;;;5045524;28;20048;-55
2023/12/23 00:47:11;;;;;;;5.82;1.00;;;10.10;89.20;;;;;;5048836;28;20708;-56
2023/12/23 00:49:39;;;;;;;2.20;0.90;;;10.10;89.20;;;;;;5047960;28;20037;-58
2023/12/23 00:52:09;;;;;;;2.30;0.90;;;10.10;89.20;;;;;;5044138;28;20056;-55
2023/12/23 00:54:36;;;;;;;4.13;1.58;;;10.20;89.20;;;;;;5046154;28;20041;-56
2023/12/23 00:57:08;;;;;;;2.13;0.85;;;10.10;89.30;;;;;;5046466;28;20119;-57
2023/12/23 00:59:35;;;;;;;1.73;0.93;;;10.10;89.40;;;;;;5047318;28;20139;-57
2023/12/23 01:02:08;;;;;;;3.72;1.10;;;10.10;89.30;;;;;;5037662;28;20038;-56
2023/12/23 01:04:35;;;;;;;5.05;0.80;;;10.10;89.30;;;;;;5037660;28;20041;-57
2023/12/23 01:07:03;;;;;;;3.33;1.02;;;10.20;89.50;;;;;;5043712;28;20732;-53
2023/12/23 01:09:30;;;;;;;3.53;1.13;;;10.10;89.40;;;;;;5046208;28;20065;-57
2023/12/23 01:11:57;;;;;;;3.00;0.77;;;10.20;89.40;;;;;;5048616;28;20677;-57
2023/12/23 01:14:24;;;;;;;2.58;0.80;;;10.20;89.30;;;;;;5045497;28;20507;-55
2023/12/23 01:16:51;;;;;;;3.88;1.15;;;10.20;89.20;;;;;;5047059;28;20410;-57
2023/12/23 01:19:20;;;;;;;4.57;1.70;;;10.20;89.30;;;;;;5050059;28;20049;-54
2023/12/23 01:21:47;;;;;;;5.53;1.00;;;10.20;89.50;;;;;;5041209;28;20065;-56
2023/12/23 01:24:23;;;;;;;2.40;0.65;;;10.20;89.40;;;;;;5045673;28;20052;-57
2023/12/23 01:26:52;;;;;;;3.63;1.15;;;10.20;89.40;;;;;;5048526;28;20045;-55
2023/12/23 01:29:22;;;;;;;3.65;1.05;;;10.20;89.50;;;;;;5047425;28;20457;-57
2023/12/23 01:31:50;;;;;;;3.50;1.10;;;10.20;89.60;;;;;;5043710;28;20497;-56
2023/12/23 01:34:16;;;;;;;5.15;0.88;;;10.20;89.50;;;;;;5046052;28;20056;-54
2023/12/23 01:36:47;;;;;;;2.20;0.70;;;10.20;89.40;;;;;;5044199;28;20037;-56
2023/12/23 01:39:13;;;;;;;3.22;0.88;;;10.20;89.30;;;;;;5044454;28;20044;-54
2023/12/23 01:41:50;;;;;;;4.95;0.90;;;10.20;89.30;;;;;;5038439;28;20414;-56
2023/12/23 01:44:19;;;;;;;8.20;1.40;;;10.20;89.30;;;;;;5047468;28;20067;-55
2023/12/23 01:46:52;;;;;;;4.18;1.00;;;10.30;89.90;;;;;;5044615;28;20410;-56
2023/12/23 01:49:21;;;;;;;5.07;1.30;;;10.20;89.30;;;;;;5049398;28;20049;-57
2023/12/23 01:51:50;;;;;;;3.08;1.35;;;10.30;89.50;;;;;;5042961;28;20519;-55
2023/12/23 01:54:22;;;;;;;5.53;1.77;;;10.30;89.60;;;;;;5046032;28;20053;-54
2023/12/23 01:56:58;;;;;;;4.53;1.35;;;10.30;89.70;;;;;;5048345;28;20171;-55
2023/12/23 01:59:27;;;;;;;3.88;1.50;;;10.30;89.70;;;;;;5030606;28;20102;-53
2023/12/23 02:01:58;;;;;;;2.85;1.25;;;10.30;89.70;;;;;;5038360;28;20042;-57
2023/12/23 02:04:28;;;;;;;3.60;1.75;;;10.30;89.80;;;;;;5037084;28;20041;-55
2023/12/23 02:06:58;;;;;;;5.72;2.38;;;10.40;90.00;;;;;;5033348;28;20511;-54
2023/12/23 02:09:31;;;;;;;3.28;1.95;;;10.40;90.10;;;;;;5049343;28;20100;-57
2023/12/23 02:12:15;;;;;;;;;;;10.40;90.20;;;;;;5048707;28;20052;-57
2023/12/23 02:15:01;;;;;;;6.68;2.65;;;10.50;90.30;;;;;;5063671;28;19921;-54
2023/12/23 02:17:28;;;;;;;5.93;1.98;;;10.60;90.30;;;;;;5047493;28;20102;-52
2023/12/23 02:19:55;;;;;;;7.55;2.05;;;10.60;90.30;;;;;;5050935;28;20075;-55
2023/12/23 02:22:30;;;;;;;10.45;3.47;;;10.60;90.40;;;;;;5047084;28;20117;-56
2023/12/23 02:24:57;;;;;;;9.43;2.63;;;10.70;90.50;;;;;;5072266;22;20572;-65
2023/12/23 02:27:38;;;;;;;7.45;2.33;;;10.80;90.50;;;;;;5051235;28;20156;-65
2023/12/23 02:30:05;;;;;;;7.53;2.63;;;10.80;90.60;;;;;;5056131;28;20064;-65
2023/12/23 02:32:33;;;;;;;6.38;2.60;;;10.80;90.50;;;;;;5059490;28;20069;-65
2023/12/23 02:35:00;;;;;;;8.98;2.28;;;10.90;90.50;;;;;;5047253;28;20049;-65
2023/12/23 02:37:28;;;;;;;7.20;1.65;;;10.90;90.50;;;;;;5050242;28;20041;-65
2023/12/23 02:39:56;;;;;;;8.50;2.28;;;11.00;90.50;;;;;;5051626;28;20041;-65
2023/12/23 02:42:23;;;;;;;6.22;2.00;;;11.00;90.40;;;;;;5043485;28;20072;-65
2023/12/23 02:44:51;;;;;;;5.47;1.67;;;11.10;90.40;;;;;;5045709;28;20076;-65
2023/12/23 02:47:20;;;;;;;9.23;2.47;;;11.10;90.40;;;;;;5051368;28;20088;-65
2023/12/23 02:49:51;;;;;;;5.43;2.38;;;11.10;90.30;;;;;;5043285;28;20091;-66
2023/12/23 02:52:21;;;;;;;6.78;2.17;;;11.20;90.30;;;;;;5040375;28;20057;-65
2023/12/23 02:54:47;;;;;;;5.93;2.58;;;11.20;90.20;;;;;;5040171;28;20099;-65
2023/12/23 02:57:19;;;;;;;7.35;2.65;;;11.20;90.20;;;;;;5045503;28;20135;-65
2023/12/23 02:59:48;;;;;;;5.05;2.58;;;11.20;90.10;;;;;;5044422;28;20068;-66
2023/12/23 03:02:14;;;;;;;7.65;2.92;;;11.30;90.20;;;;;;5035805;28;20111;-65
2023/12/23 03:04:50;;;;;;;7.32;2.75;;;11.20;90.10;;;;;;5037025;28;20034;-66
2023/12/23 03:07:17;;;;;;;8.65;3.13;;;11.30;90.10;;;;;;5045484;28;20073;-65
2023/12/23 03:09:46;;;;;;;6.57;3.47;;;11.30;90.10;;;;;;5043210;28;20029;-66
2023/12/23 03:12:15;;;;;;;7.97;3.13;;;11.30;90.10;;;;;;5048800;28;20095;-65
2023/12/23 03:14:42;;;;;;;6.68;3.28;;;11.30;90.10;;;;;;5051250;28;20041;-66
2023/12/23 03:17:19;;;;;;;9.07;3.85;;;11.30;90.10;;;;;;5043233;28;20076;-66
2023/12/23 03:19:46;;;;;;;5.53;3.30;;;11.40;90.10;;;;;;5044262;28;20124;-66
2023/12/23 03:22:18;;;;;;;6.40;3.35;;;11.40;90.10;;;;;;5049161;28;20048;-66
2023/12/23 03:24:47;;;;;;;9.05;4.40;;;11.40;90.10;;;;;;5038018;28;20041;-65
2023/12/23 03:27:18;;;;;;;9.43;5.00;;;11.40;90.00;;;;;;5047370;28;20053;-65
2023/12/23 03:29:47;;;;;;;11.13;5.35;;;11.40;90.00;;;;;;5048420;28;20045;-65
2023/12/23 03:32:21;;;;;;;9.52;5.05;;;11.40;90.00;;;;;;5042788;28;20107;-65
2023/12/23 03:34:51;;;;;;;8.52;5.60;;;11.40;90.00;;;;;;5048679;28;20056;-66
2023/12/23 03:37:20;;;;;;;8.45;5.15;;;11.40;90.00;;;;;;5048871;28;20048;-65
2023/12/23 03:39:47;;;;;;;8.27;5.32;;;11.40;90.00;;;;;;5043092;28;20068;-66
2023/12/23 03:42:26;;;;;;;11.55;6.05;;;11.40;90.00;;;;;;5046800;28;20041;-65
2023/12/23 03:44:54;;;;;;;9.80;4.97;;;11.40;89.90;;;;;;5046803;28;20041;-65
2023/12/23 03:47:39;;;;;;;9.10;5.05;;;11.40;89.90;;;;;;5047888;28;20110;-65
2023/12/23 03:50:09;;;;;;;12.07;5.30;;;11.40;89.80;;;;;;5042570;28;20036;-67
2023/12/23 03:52:39;;;;;;;10.20;5.05;;;11.40;89.80;;;;;;5044635;28;20068;-66
2023/12/23 03:55:06;;;;;;;8.20;4.65;;;11.40;89.80;;;;;;5036342;28;20397;-66
2023/12/23 03:57:35;;;;;;;6.18;3.97;;;11.30;89.70;;;;;;5046087;28;20560;-66
2023/12/23 04:00:03;;;;;;;8.80;4.28;;;11.30;89.80;;;;;;5039466;28;20045;-66
2023/12/23 04:02:44;;;;;;;6.97;4.20;;;11.30;89.80;;;;;;5034858;28;20041;-66
2023/12/23 04:05:13;;;;;;;6.63;4.18;;;11.30;89.70;;;;;;5035416;28;20050;-66
2023/12/23 04:07:40;;;;;;;6.50;4.10;;;11.30;89.70;;;;;;5045623;28;20048;-65
2023/12/23 04:10:08;;;;;;;8.15;4.05;;;11.30;89.60;;;;;;5045860;28;20029;-66
2023/12/23 04:12:36;;;;;;;7.72;4.57;;;11.30;90.00;;;;;;5046931;28;20032;-66
2023/12/23 04:15:06;;;;;;;9.20;5.03;;;11.30;89.70;;;;;;5048566;28;20094;-65
2023/12/23 04:17:40;;;;;;;10.65;5.10;;;11.30;89.60;;;;;;5043941;28;20034;-65
2023/12/23 04:20:16;;;;;;;14.68;5.57;;;11.30;89.60;;;;;;5047809;28;20055;-66
2023/12/23 04:22:48;;;;;;;7.72;5.07;;;11.30;89.50;;;;;;5048293;28;20049;-66
2023/12/23 04:25:15;;;;;;;12.52;5.53;;;11.30;89.50;;;;;;5034572;28;20042;-66
2023/12/23 04:27:51;;;;;;;12.85;5.93;;;11.20;89.40;;;;;;5044971;28;20036;-66
2023/12/23 04:30:19;;;;;;;10.55;5.53;;;11.30;89.50;;;;;;5049111;28;20041;-66
2023/12/23 04:32:50;;;;;;;9.43;6.05;;;11.30;89.50;;;;;;5037982;28;20041;-66
2023/12/23 04:35:17;;;;;;;9.55;5.90;;;11.20;89.50;;;;;;5037380;28;20073;-66
2023/12/23 04:37:45;;;;;;;15.13;6.28;;;11.20;89.40;;;;;;5049314;28;20774;-66
2023/12/23 04:40:15;;;;;;;7.75;5.93;;;11.20;89.40;;;;;;5048676;28;20064;-66
2023/12/23 04:42:43;;;;;;;11.95;7.10;;;11.20;89.30;;;;;;5041992;28;20044;-66
2023/12/23 04:45:10;;;;;;;10.35;6.32;;;11.20;89.30;;;;;;5045638;28;20049;-66
2023/12/23 04:47:37;;;;;;;14.30;6.53;;;11.20;89.30;;;;;;5049307;28;20045;-66
2023/12/23 04:50:09;;;;;;;9.90;5.63;;;11.20;89.40;;;;;;5038830;28;20037;-66
2023/12/23 04:52:36;;;;;;;8.98;5.40;;;11.20;89.30;;;;;;5036755;28;20419;-66
2023/12/23 04:55:11;;;;;;;10.52;5.90;;;11.30;89.30;;;;;;5035203;28;20526;-67
2023/12/23 04:57:38;;;;;;;9.27;5.28;;;11.20;89.30;;;;;;5042725;28;20515;-66
2023/12/23 05:00:06;;;;;;;10.18;5.97;;;11.20;89.10;;;;;;5035604;28;20124;-68
2023/12/23 05:02:33;;;;;;;5.60;5.10;;;11.20;89.10;;;;;;5034299;28;20045;-66
2023/12/23 05:05:01;;;;;;;6.13;5.38;;;11.20;89.10;;;;;;5032470;28;20254;-67
2023/12/23 05:07:28;;;;;;;9.80;5.53;;;11.20;89.20;;;;;;5036268;28;20056;-66
2023/12/23 05:10:00;;;;;;;7.30;5.68;;;11.20;89.20;;;;;;5050336;28;20049;-66
2023/12/23 05:12:29;;;;;;;9.50;5.47;;;11.20;89.30;;;;;;5047161;28;20075;-66
2023/12/23 05:14:59;;;;;;;9.05;5.35;;;11.20;89.30;;;;;;5048645;28;20055;-66
2023/12/23 05:17:28;;;;;;;7.50;5.15;;;11.20;89.30;;;;;;5046207;28;20146;-66
2023/12/23 05:20:18;;;;;;;6.82;5.15;;;11.20;89.30;;;;;;5042696;28;20529;-66
2023/12/23 05:22:45;;;;;;;8.13;5.25;;;11.20;89.30;;;;;;5045871;28;20045;-65
2023/12/23 05:25:11;;;;;;;9.73;5.00;;;11.20;89.20;;;;;;5034960;28;20045;-66
2023/12/23 05:27:49;;;;;;;10.13;4.72;;;11.20;89.30;;;;;;5047539;28;20044;-65
2023/12/23 05:30:16;;;;;;;7.15;4.80;;;11.20;89.20;;;;;;5047698;28;20041;-66
2023/12/23 05:32:49;;;;;;;8.75;5.32;;;11.20;89.20;;;;;;5038490;28;20045;-66
2023/12/23 05:35:19;;;;;;;7.28;5.00;;;11.20;89.30;;;;;;5045585;28;20059;-66
2023/12/23 05:37:48;;;;;;;8.05;4.60;;;11.20;89.10;;;;;;5042689;28;20053;-66
2023/12/23 05:40:17;;;;;;;6.65;4.72;;;11.20;89.10;;;;;;5048200;28;20052;-65
2023/12/23 05:42:46;;;;;;;5.80;4.20;;;11.20;89.10;;;;;;5044251;28;20041;-65
2023/12/23 05:45:17;;;;;;;9.65;4.80;;;11.20;89.10;;;;;;5047895;28;20045;-65
2023/12/23 05:47:44;;;;;;;8.00;4.40;;;11.20;89.20;;;;;;5049706;28;20061;-67
2023/12/23 05:50:11;;;;;;;10.63;4.72;;;11.20;89.10;;;;;;5038693;28;20042;-66
2023/12/23 05:52:43;;;;;;;7.95;4.75;;;11.20;89.20;;;;;;5039764;28;20529;-66
2023/12/23 05:55:13;;;;;;;9.77;4.97;;;11.20;89.20;;;;;;5035178;28;20045;-65
2023/12/23 05:57:42;;;;;;;10.65;4.93;;;11.20;89.10;;;;;;5047257;28;20056;-65
2023/12/23 06:00:09;;;;;;;11.02;4.65;;;11.20;89.10;;;;;;5040815;28;20538;-66
2023/12/23 06:02:39;;;;;;;9.70;4.40;;;11.20;89.10;;;;;;5031614;28;20052;-66
2023/12/23 06:05:08;;;;;;;8.50;4.68;;;11.20;89.10;;;;;;5032244;28;20045;-65
2023/12/23 06:07:39;;;;;;;6.80;3.85;;;11.20;89.10;;;;;;5038056;28;20049;-66
2023/12/23 06:10:10;;;;;;;6.28;4.47;;;11.30;89.20;;;;;;5044615;28;20380;-65
2023/12/23 06:12:36;;;;;;;5.93;3.72;;;11.30;89.10;;;;;;5048145;28;20037;-66
2023/12/23 06:15:06;;;;;;;4.70;3.80;;;11.30;89.20;;;;;;5040711;28;20048;-65
2023/12/23 06:17:36;;;;;;;6.25;4.43;;;11.30;89.10;;;;;;5047413;28;20426;-66
2023/12/23 06:20:06;;;;;;;7.47;3.72;;;11.30;89.00;;;;;;5048488;28;20541;-66
2023/12/23 06:22:36;;;;;;;5.82;3.97;;;11.30;89.10;;;;;;5040477;28;20091;-66
2023/12/23 06:25:04;;;;;;;9.38;4.13;;;11.30;89.00;;;;;;5035098;28;20033;-65
2023/12/23 06:27:33;;;;;;;9.60;4.45;;;11.30;89.00;;;;;;5046736;28;20068;-65
2023/12/23 06:30:10;;;;;;;7.65;4.22;;;11.30;89.00;;;;;;5049400;28;20036;-65
2023/12/23 06:32:37;;;;;;;6.40;3.55;;;11.30;88.90;;;;;;5032271;28;20458;-67
2023/12/23 06:35:08;;;;;;;6.10;3.90;;;11.30;88.80;;;;;;5044010;28;20033;-66
2023/12/23 06:37:37;;;;;;;5.28;3.80;;;11.30;88.80;;;;;;5048532;28;20068;-66
2023/12/23 06:40:16;;;;;;;7.22;3.40;;;11.30;88.80;;;;;;5042767;28;20041;-65
2023/12/23 06:42:42;;;;;;;6.82;3.83;;;11.30;88.80;;;;;;5049181;28;20093;-66
2023/12/23 06:45:11;;;;;;;5.47;3.58;;;11.40;88.80;;;;;;5049643;28;20538;-66
2023/12/23 06:47:43;;;;;;;4.40;3.23;;;11.40;88.70;;;;;;5049185;28;20107;-65
2023/12/23 06:50:15;;;;;;;9.80;4.93;;;11.40;88.80;;;;;;5043686;28;20681;-66
2023/12/23 06:52:46;;;;;;;5.93;3.22;;;11.40;88.80;;;;;;5044401;28;20041;-66
2023/12/23 06:55:16;;;;;;;8.95;4.43;;;11.40;88.80;;;;;;5033415;28;20064;-66
2023/12/23 06:57:45;;;;;;;9.07;4.10;;;11.40;88.80;;;;;;5050009;28;20120;-67
2023/12/23 07:00:16;;;;;;;11.07;4.63;;;11.40;88.80;;;;;;5038013;28;20419;-66
2023/12/23 07:02:42;;;;;;;7.95;3.95;;;11.40;88.90;;;;;;5041370;28;20075;-66
2023/12/23 07:05:14;;;;;;;6.07;3.70;;;11.40;88.80;;;;;;5034601;28;20073;-67
2023/12/23 07:07:45;;;;;;;10.73;4.00;;;11.40;89.40;;;;;;5038659;28;20388;-66
2023/12/23 07:10:15;;;;;;;;;;;11.40;88.90;;;;;;5053450;28;20068;-66
2023/12/23 07:12:52;;;;;;;4.47;3.85;;;11.40;89.10;;;;;;5045192;28;19939;-66
2023/12/23 07:15:23;;;;;;;9.48;4.88;;;11.40;88.60;;;;;;5050289;28;20048;-67
2023/12/23 07:17:51;;;;;;;7.43;4.90;;;11.40;88.80;;;;;;5048252;28;20099;-66
2023/12/23 07:20:21;;;;;;;6.10;4.20;;;11.40;88.90;;;;;;5051336;28;20094;-66
2023/12/23 07:22:51;;;;;;;10.07;4.28;;;11.40;89.00;;;;;;5049849;28;20110;-67
2023/12/23 07:25:18;;;;;;;8.77;4.80;;;11.40;89.10;;;;;;5037805;28;20053;-66
2023/12/23 07:27:44;;;;;;;8.50;3.83;;;11.40;89.20;;;;;;5052561;28;20033;-66
2023/12/23 07:30:14;;;;;;;8.52;4.38;;;11.40;89.20;;;;;;5052786;28;20469;-67
2023/12/23 07:32:45;;;;;;;7.53;4.40;;;11.40;89.30;;;;;;5047513;28;20515;-66
2023/12/23 07:35:12;;;;;;;8.48;4.53;;;11.40;89.30;;;;;;5045052;28;20518;-66
2023/12/23 07:37:45;;;;;;;9.30;4.68;;;11.40;89.30;;;;;;5051798;28;20576;-67
2023/12/23 07:40:11;;;;;;;8.43;4.78;;;11.40;89.30;;;;;;5052590;28;20534;-66
2023/12/23 07:42:38;;;;;;;7.13;4.05;;;11.40;89.30;;;;;;5049385;28;20487;-66
2023/12/23 07:45:08;;;;;;;7.40;4.95;;;11.40;89.30;;;;;;5042016;28;20030;-66
2023/12/23 07:47:37;;;;;;;12.18;4.78;;;11.40;89.20;;;;;;5050716;28;20048;-66
2023/12/23 07:50:11;;;;;;;11.80;4.53;;;11.40;89.30;;;;;;5052097;28;20044;-66
2023/12/23 07:52:39;;;;;;;7.88;4.53;;;11.40;89.30;;;;;;5043451;28;20120;-66
2023/12/23 07:55:07;;;;;;;8.68;4.35;;;11.40;89.20;;;;;;5038200;28;20033;-66
2023/12/23 07:57:37;;;;;;;10.00;4.80;;;11.40;89.30;;;;;;5049045;28;20721;-66
2023/12/23 08:00:09;;;;;;;6.47;4.20;;;11.40;89.20;;;;;;5039421;28;20104;-66
2023/12/23 08:02:43;;;;;;;6.32;4.00;;;11.40;89.20;;;;;;5050132;28;20123;-67
2023/12/23 08:05:09;;;;;;;8.40;3.90;;;11.40;89.80;;;;;;5051440;28;20094;-66
2023/12/23 08:07:44;;;;;;;10.90;4.40;;;11.40;89.20;;;;;;5043793;28;20098;-67
2023/12/23 08:10:18;;;;;;;12.60;4.40;;;11.40;89.20;;;;;;5046015;28;20120;-66
2023/12/23 08:12:52;;;;;;;5.22;3.28;;;11.40;89.20;;;;;;5051681;28;20091;-65
2023/12/23 08:15:21;;;;;;;10.25;4.57;;;11.50;89.20;;;;;;5051981;28;20411;-66
2023/12/23 08:17:50;;;;;;;8.48;3.70;;;11.50;89.10;;;;;;5037787;28;20052;-65
2023/12/23 08:20:20;;;;;;;7.30;3.88;;;11.50;89.00;;;;;;5043957;28;20037;-64
2023/12/23 08:23:01;;;;;;;9.90;3.95;;;11.50;89.00;;;;;;5040000;28;20071;-64
2023/12/23 08:25:29;;;;;;;9.27;3.33;;;11.50;88.90;;;;;;5055108;23;20045;-55
2023/12/23 08:28:04;;;;;;;9.95;3.95;;;11.50;88.90;;;;;;5059690;28;20434;-55
2023/12/23 08:30:32;;;;;;;8.85;3.45;;;11.50;88.90;;;;;;5067975;28;20488;-55
2023/12/23 08:33:05;;;;;;;9.90;3.45;;;11.50;88.90;;;;;;5056375;28;20064;-53
2023/12/23 08:35:41;;;;;;;8.15;3.25;;;11.50;88.90;;;;;;5045027;28;20403;-53
2023/12/23 08:38:10;;;;;;;5.97;2.88;;;11.60;88.80;;;;;;5051458;28;20041;-52
2023/12/23 08:40:43;;;;;;;7.15;3.50;;;11.60;89.00;;;;;;5050707;28;20071;-53
2023/12/23 08:43:14;;;;;;;5.90;3.08;;;11.60;89.00;;;;;;5046663;28;20044;-52
2023/12/23 08:45:45;;;;;;;7.00;3.17;;;11.60;88.90;;;;;;5049885;28;20461;-53
2023/12/23 08:48:14;;;;;;;6.80;3.47;;;11.70;88.90;;;;;;5051341;28;20045;-52
2023/12/23 08:50:49;;;;;;;7.18;2.65;;;11.70;88.80;;;;;;5048575;28;20110;-52
2023/12/23 08:53:23;;;;;;;8.00;3.38;;;11.70;88.70;;;;;;5036450;28;20063;-53
2023/12/23 08:55:50;;;;;;;4.75;2.63;;;11.70;88.70;;;;;;5036622;28;20053;-57
2023/12/23 08:58:24;;;;;;;9.65;3.42;;;11.70;88.50;;;;;;5043017;28;20068;-56
2023/12/23 09:00:51;;;;;;;9.82;3.55;;;11.80;88.60;;;;;;5047923;28;20045;-53
2023/12/23 09:03:19;;;;;;;9.60;3.03;;;11.80;88.40;;;;;;5033497;28;20481;-56
2023/12/23 09:05:46;;;;;;;9.07;3.70;;;11.80;88.30;;;;;;5046260;28;20037;-55
2023/12/23 09:08:13;;;;;;;6.35;2.70;;;11.80;88.20;;;;;;5041688;28;20049;-53
2023/12/23 09:10:45;;;;;;;6.95;2.35;;;11.80;88.20;;;;;;5049947;28;20135;-56
2023/12/23 09:13:14;;;;;;;6.88;2.85;;;11.80;88.00;;;;;;5050860;28;20458;-53
2023/12/23 09:15:45;;;;;;;5.78;2.83;;;11.90;87.90;;;;;;5043286;28;20423;-56
2023/12/23 09:18:14;;;;;;;9.32;3.08;;;11.90;87.80;;;;;;5050317;28;20037;-54
2023/12/23 09:20:44;;;;;;;6.40;2.30;;;11.90;87.60;;;;;;5049539;28;20123;-54
2023/12/23 09:23:10;;;;;;;9.15;2.60;;;11.90;87.40;;;;;;5042483;28;20069;-58
2023/12/23 09:25:37;;;;;;;7.70;2.60;;;11.90;87.40;;;;;;5042706;28;20049;-56
2023/12/23 09:28:05;;;;;;;8.98;3.10;;;11.90;87.40;;;;;;5050408;28;20049;-53
2023/12/23 09:30:36;;;;;;;4.78;2.33;;;12.00;87.90;;;;;;5049927;28;20736;-56
2023/12/23 09:33:05;;;;;;;6.47;2.72;;;12.00;87.10;;;;;;5044438;28;20041;-53
2023/12/23 09:35:33;;;;;;;5.70;2.08;;;12.00;86.90;;;;;;5046047;28;20045;-57
2023/12/23 09:38:00;;;;;;;4.55;2.20;;;12.00;87.00;;;;;;5050364;28;20074;-52
2023/12/23 09:40:29;;;;;;;4.70;2.42;;;12.00;87.10;;;;;;5047305;28;20547;-54
2023/12/23 09:42:59;;;;;;;6.30;3.03;;;12.00;86.90;;;;;;5047034;28;20033;-52
2023/12/23 09:45:27;;;;;;;6.65;3.20;;;12.10;87.10;;;;;;5050308;28;20408;-56
2023/12/23 09:48:04;;;;;;;7.00;3.17;;;12.10;86.90;;;;;;5044188;28;20450;-56
2023/12/23 09:50:33;;;;;;;8.23;2.72;;;12.10;86.70;;;;;;5046628;28;20098;-55
2023/12/23 09:53:00;;;;;;;6.00;3.03;;;12.10;86.70;;;;;;5032146;28;20546;-56
2023/12/23 09:55:33;;;;;;;7.15;3.72;;;12.10;86.60;;;;;;5046872;28;20106;-56
2023/12/23 09:58:05;;;;;;;9.85;3.45;;;12.10;86.70;;;;;;5022403;28;20048;-56
2023/12/23 10:00:32;;;;;;;5.13;3.05;;;12.00;86.60;;;;;;5046510;28;20110;-54
2023/12/23 10:03:03;;;;;;;7.85;3.88;;;12.10;86.80;;;;;;5044227;28;20406;-55
2023/12/23 10:05:32;;;;;;;5.43;3.85;;;12.00;86.80;;;;;;5046335;28;20506;-53
2023/12/23 10:08:02;;;;;;;10.13;3.85;;;12.00;86.90;;;;;;5044615;28;20044;-54
2023/12/23 10:10:32;;;;;;;9.07;3.80;;;12.00;87.00;;;;;;5049935;28;20041;-51
2023/12/23 10:13:00;;;;;;;6.63;4.00;;;11.90;87.10;;;;;;5044891;28;20079;-54
2023/12/23 10:15:27;;;;;;;6.93;3.53;;;11.90;87.10;;;;;;5045593;28;20052;-56
2023/12/23 10:17:55;;;;;;;9.80;4.68;;;11.90;87.20;;;;;;5049623;28;20053;-56
2023/12/23 10:20:29;;;;;;;7.15;3.90;;;11.90;87.40;;;;;;5049589;28;20045;-51
2023/12/23 10:22:56;;;;;;;5.43;4.05;;;11.90;87.60;;;;;;5040735;28;20463;-56
2023/12/23 10:25:25;;;;;;;4.80;4.40;;;11.90;87.70;;;;;;5044211;28;20045;-55
2023/12/23 10:28:03;;;;;;;8.90;4.50;;;11.80;87.60;;;;;;5049608;28;20076;-57
2023/12/23 10:30:39;;;;;;;7.45;4.18;;;11.80;87.60;;;;;;5050873;28;20565;-56
2023/12/23 10:33:16;;;;;;;7.13;4.20;;;11.80;87.80;;;;;;5049047;28;20124;-56
2023/12/23 10:35:50;;;;;;;6.35;4.65;;;11.80;87.90;;;;;;5031452;28;20053;-56
2023/12/23 10:38:21;;;;;;;6.55;4.03;;;11.80;87.90;;;;;;5053429;28;20049;-54
2023/12/23 10:41:15;;;;;;;8.48;5.07;;;11.80;88.00;;;;;;5048675;28;20095;-56
2023/12/23 10:43:46;;;;;;;6.75;4.28;;;11.80;88.30;;;;;;5052719;28;20555;-56
2023/12/23 10:46:16;;;;;;;5.45;3.85;;;11.80;88.20;;;;;;5053396;28;20048;-53
2023/12/23 10:48:43;;;;;;;6.70;4.00;;;11.80;88.20;;;;;;5052995;28;20096;-54
2023/12/23 10:51:11;;;;;;;6.60;3.63;;;11.80;88.30;;;;;;5048062;28;20056;-55
2023/12/23 10:53:41;;;;;;;4.90;3.17;;;11.80;88.20;;;;;;5040581;28;20495;-55
2023/12/23 10:56:09;;;;;;;5.10;3.28;;;11.80;88.20;;;;;;5052062;28;20037;-57
2023/12/23 10:58:44;;;;;;;6.18;3.58;;;11.80;88.20;;;;;;5048505;28;20049;-56
2023/12/23 11:01:16;;;;;;;7.00;3.70;;;11.80;88.00;;;;;;5051474;28;20099;-52
2023/12/23 11:04:00;;;;;;;5.55;3.50;;;11.80;88.60;;;;;;5052947;28;20045;-55
2023/12/23 11:06:33;;;;;;;5.00;2.83;;;11.80;87.90;;;;;;5052977;28;20037;-56
2023/12/23 11:09:04;;;;;;;6.22;2.88;;;11.80;87.80;;;;;;5047097;28;20111;-55
2023/12/23 11:11:36;;;;;;;5.30;2.80;;;11.90;88.00;;;;;;5050712;28;20045;-55
2023/12/23 11:14:06;;;;;;;4.13;2.88;;;11.90;87.80;;;;;;5047339;28;20068;-52
2023/12/23 11:16:43;;;;;;;7.97;2.92;;;11.90;87.80;;;;;;5047682;28;20037;-52
2023/12/23 11:19:12;;;;;;;3.50;2.10;;;11.90;87.60;;;;;;5052902;28;20041;-56
2023/12/23 11:21:41;;;;;;;6.47;2.40;;;11.90;87.20;;;;;;5051827;28;20045;-58
2023/12/23 11:24:30;;;;;;;4.20;1.80;;;12.00;87.30;;;;;;5037847;28;20041;-52
2023/12/23 11:26:58;;;;;;;4.95;2.22;;;12.00;87.10;;;;;;5051658;28;20041;-52
2023/12/23 11:29:25;;;;;;;2.67;1.85;;;12.00;87.10;;;;;;5052439;28;20148;-52
2023/12/23 11:32:08;;;;;;;2.40;1.88;;;12.00;86.90;;;;;;5047478;28;20068;-56
2023/12/23 11:34:42;;;;;;;3.65;2.60;;;12.10;86.60;;;;;;5048097;28;20049;-56
2023/12/23 11:37:10;;;;;;;5.82;2.50;;;12.10;86.50;;;;;;5047618;28;20041;-54
2023/12/23 11:39:37;;;;;;;6.03;2.78;;;12.10;86.30;;;;;;5052466;28;20562;-55
2023/12/23 11:42:13;;;;;;;3.85;2.33;;;12.10;86.00;;;;;;5043144;28;20521;-54
2023/12/23 11:44:41;;;;;;;3.72;2.17;;;12.10;85.60;;;;;;5051377;28;20048;-56
2023/12/23 11:47:12;;;;;;;5.22;2.53;;;12.20;85.60;;;;;;5047306;28;20029;-52
2023/12/23 11:49:43;;;;;;;3.05;2.25;;;12.20;85.50;;;;;;5047195;28;20051;-55
2023/12/23 11:52:12;;;;;;;5.50;2.22;;;12.20;85.60;;;;;;5052045;28;20128;-52
2023/12/23 11:54:44;;;;;;;4.72;1.45;;;12.30;85.40;;;;;;5046449;28;20556;-55
2023/12/23 11:57:18;;;;;;;4.88;1.75;;;12.30;85.00;;;;;;5050839;28;20542;-55
2023/12/23 11:59:48;;;;;;;6.00;2.45;;;12.30;84.80;;;;;;5048069;28;20041;-56
2023/12/23 12:02:15;;;;;;;7.45;2.45;;;12.30;84.70;;;;;;5052153;28;20091;-56
2023/12/23 12:04:42;;;;;;;2.47;1.90;;;12.40;84.50;;;;;;5051250;28;20051;-52
2023/12/23 12:07:20;;;;;;;2.55;1.40;;;12.40;84.00;;;;;;5044933;28;20418;-54
2023/12/23 12:09:46;;;;;;;4.22;2.05;;;12.40;84.10;;;;;;5046036;28;20095;-58
2023/12/23 12:12:16;;;;;;;4.95;1.50;;;12.50;84.00;;;;;;5051909;28;20041;-51
2023/12/23 12:14:49;;;;;;;2.38;1.73;;;12.50;83.70;;;;;;5051489;28;20108;-56
2023/12/23 12:17:18;;;;;;;7.18;1.70;;;12.50;83.50;;;;;;5049441;28;20041;-55
2023/12/23 12:19:45;;;;;;;4.13;1.63;;;12.50;83.40;;;;;;5051014;28;20529;-55
2023/12/23 12:22:22;;;;;;;5.20;1.88;;;12.60;83.20;;;;;;5051331;28;20604;-53
2023/12/23 12:24:49;;;;;;;5.47;1.40;;;12.60;83.10;;;;;;5044574;28;20049;-53
2023/12/23 12:27:16;;;;;;;10.23;2.13;;;12.60;83.00;;;;;;5051436;28;20048;-56
2023/12/23 12:29:45;;;;;;;3.00;1.55;;;12.60;82.70;;;;;;5051122;28;20048;-54
2023/12/23 12:32:13;;;;;;;9.25;1.73;;;12.70;82.50;;;;;;5043255;28;20556;-54
2023/12/23 12:34:46;;;;;;;4.32;1.65;;;12.70;82.20;;;;;;5050092;28;20076;-55
2023/12/23 12:37:16;;;;;;;3.95;1.42;;;12.70;81.80;;;;;;5051416;28;20037;-55
2023/12/23 12:39:45;;;;;;;4.07;1.33;;;12.70;81.90;;;;;;5045029;28;20047;-52
2023/12/23 12:42:15;;;;;;;5.07;1.25;;;12.80;82.00;;;;;;5050493;28;20095;-56
2023/12/23 12:44:42;;;;;;;3.35;1.38;;;12.80;81.80;;;;;;5051015;28;20053;-55
2023/12/23 12:47:11;;;;;;;3.53;1.48;;;12.80;81.50;;;;;;5046145;28;20495;-54
2023/12/23 12:49:46;;;;;;;2.67;1.10;;;12.80;81.40;;;;;;5046599;28;20048;-53
2023/12/23 12:52:32;;;;;;;3.97;1.30;;;12.80;81.20;;;;;;5047354;28;20473;-56
2023/12/23 12:55:06;;;;;;;3.63;1.20;;;12.90;81.20;;;;;;5031401;28;20580;-52
2023/12/23 12:57:37;;;;;;;4.45;1.20;;;12.80;80.90;;;;;;5047984;28;20065;-51
2023/12/23 13:00:07;;;;;;;6.30;1.10;;;12.80;80.50;;;;;;5046823;28;20127;-56
2023/12/23 13:02:36;;;;;;;5.13;1.38;;;12.90;80.40;;;;;;5050606;28;20053;-56